CheckWX is a tool to help pilots better visualize weather data.  It is not intended as a substitute for an official pre-flight weather briefing.

10:33:58 UTC

SBBH METAR
Pampulha - Carlos Drummond de Andrade Airport
Belo Horizonte, Brazil
Current

34 mins ago

SBBH 191000Z 00000KT CAVOK 17/15 Q1020
Observed
May-19 @ 10:00 UTC
Visibility
10,000+ meters
Flight Rules
VFR
Cloud Levels
  • Clear skies
Temperature
17°C / 63°F
Dewpoint
15°C / 59°F
Humidity
88%
Altimeter
30.12" Hg
Pressure
1019.92 hPa
Previous

2 hours ago

SBBH 190900Z 09003KT CAVOK 16/14 Q1021
Observed
May-19 @ 09:00 UTC
Wind
  • 090° at 3 KTS
Visibility
10,000+ meters
Flight Rules
VFR
Cloud Levels
  • Clear skies
Temperature
16°C / 61°F
Dewpoint
14°C / 57°F
Humidity
88%
Altimeter
30.15" Hg
Pressure
1020.92 hPa
Previous

3 hours ago

SBBH 190800Z 07004KT CAVOK 16/15 Q1019
Observed
May-19 @ 08:00 UTC
Wind
  • 070° at 4 KTS
Visibility
10,000+ meters
Flight Rules
VFR
Cloud Levels
  • Clear skies
Temperature
16°C / 61°F
Dewpoint
15°C / 59°F
Humidity
94%
Altimeter
30.09" Hg
Pressure
1018.92 hPa